sensor_id;sensor_type;location;lat;lon;timestamp;P1;durP1;ratioP1;P2;durP2;ratioP2
5979;SDS011;3016;50.308;8.258;2023-02-28T00:01:00;24.93;;;5.57;;
5979;SDS011;3016;50.308;8.258;2023-02-28T00:04:01;23.03;;;5.13;;
5979;SDS011;3016;50.308;8.258;2023-02-28T00:07:02;22.07;;;4.07;;
5979;SDS011;3016;50.308;8.258;2023-02-28T00:10:03;22.10;;;4.37;;
5979;SDS011;3016;50.308;8.258;2023-02-28T00:13:10;23.73;;;5.27;;
5979;SDS011;3016;50.308;8.258;2023-02-28T00:16:12;24.13;;;5.10;;
5979;SDS011;3016;50.308;8.258;2023-02-28T00:19:16;21.70;;;4.67;;
5979;SDS011;3016;50.308;8.258;2023-02-28T00:22:18;22.97;;;5.40;;
5979;SDS011;3016;50.308;8.258;2023-02-28T00:25:21;24.00;;;5.60;;
5979;SDS011;3016;50.308;8.258;2023-02-28T00:28:24;22.50;;;4.87;;
5979;SDS011;3016;50.308;8.258;2023-02-28T00:31:25;24.27;;;5.50;;
5979;SDS011;3016;50.308;8.258;2023-02-28T00:34:25;25.27;;;5.63;;
5979;SDS011;3016;50.308;8.258;2023-02-28T00:37:27;23.30;;;4.90;;
5979;SDS011;3016;50.308;8.258;2023-02-28T00:40:28;25.63;;;5.57;;
5979;SDS011;3016;50.308;8.258;2023-02-28T00:43:30;25.10;;;5.17;;
5979;SDS011;3016;50.308;8.258;2023-02-28T00:46:32;22.67;;;5.07;;
5979;SDS011;3016;50.308;8.258;2023-02-28T00:49:33;25.03;;;5.53;;
5979;SDS011;3016;50.308;8.258;2023-02-28T00:52:33;21.90;;;4.60;;
5979;SDS011;3016;50.308;8.258;2023-02-28T00:55:34;23.27;;;5.03;;
5979;SDS011;3016;50.308;8.258;2023-02-28T00:58:35;22.60;;;5.27;;
5979;SDS011;3016;50.308;8.258;2023-02-28T01:01:35;22.07;;;4.90;;
5979;SDS011;3016;50.308;8.258;2023-02-28T01:04:36;25.43;;;5.37;;
5979;SDS011;3016;50.308;8.258;2023-02-28T01:07:37;24.60;;;5.07;;
5979;SDS011;3016;50.308;8.258;2023-02-28T01:10:38;24.40;;;5.17;;
5979;SDS011;3016;50.308;8.258;2023-02-28T01:13:39;26.00;;;6.37;;
5979;SDS011;3016;50.308;8.258;2023-02-28T01:16:40;25.30;;;6.30;;
5979;SDS011;3016;50.308;8.258;2023-02-28T01:19:41;25.50;;;5.87;;
5979;SDS011;3016;50.308;8.258;2023-02-28T01:22:42;23.07;;;5.40;;
5979;SDS011;3016;50.308;8.258;2023-02-28T01:25:43;22.67;;;5.03;;
5979;SDS011;3016;50.308;8.258;2023-02-28T01:28:44;22.90;;;5.23;;
5979;SDS011;3016;50.308;8.258;2023-02-28T01:31:45;24.30;;;5.90;;
5979;SDS011;3016;50.308;8.258;2023-02-28T01:34:46;24.00;;;6.03;;
5979;SDS011;3016;50.308;8.258;2023-02-28T01:37:46;23.00;;;5.70;;
5979;SDS011;3016;50.308;8.258;2023-02-28T01:40:47;23.67;;;5.80;;
5979;SDS011;3016;50.308;8.258;2023-02-28T01:46:49;25.37;;;5.33;;
5979;SDS011;3016;50.308;8.258;2023-02-28T01:49:49;25.07;;;5.40;;
5979;SDS011;3016;50.308;8.258;2023-02-28T01:52:51;26.30;;;6.40;;
5979;SDS011;3016;50.308;8.258;2023-02-28T01:55:55;24.23;;;5.53;;
5979;SDS011;3016;50.308;8.258;2023-02-28T01:58:56;23.10;;;5.63;;
5979;SDS011;3016;50.308;8.258;2023-02-28T02:01:57;26.27;;;6.10;;
5979;SDS011;3016;50.308;8.258;2023-02-28T02:05:00;26.37;;;5.90;;
5979;SDS011;3016;50.308;8.258;2023-02-28T02:08:26;22.90;;;5.17;;
5979;SDS011;3016;50.308;8.258;2023-02-28T02:11:29;25.93;;;6.57;;
5979;SDS011;3016;50.308;8.258;2023-02-28T02:14:40;23.73;;;5.73;;
5979;SDS011;3016;50.308;8.258;2023-02-28T02:25:29;25.50;;;5.60;;
5979;SDS011;3016;50.308;8.258;2023-02-28T02:32:36;23.93;;;6.13;;
5979;SDS011;3016;50.308;8.258;2023-02-28T02:35:57;26.97;;;6.97;;
5979;SDS011;3016;50.308;8.258;2023-02-28T02:39:34;24.10;;;6.10;;
5979;SDS011;3016;50.308;8.258;2023-02-28T02:46:30;24.83;;;6.43;;
5979;SDS011;3016;50.308;8.258;2023-02-28T02:49:36;27.20;;;7.70;;
5979;SDS011;3016;50.308;8.258;2023-02-28T02:52:42;23.03;;;6.00;;
5979;SDS011;3016;50.308;8.258;2023-02-28T02:55:49;25.77;;;6.60;;
5979;SDS011;3016;50.308;8.258;2023-02-28T02:58:55;25.17;;;6.27;;
5979;SDS011;3016;50.308;8.258;2023-02-28T03:02:03;26.50;;;7.87;;
5979;SDS011;3016;50.308;8.258;2023-02-28T03:05:30;25.63;;;6.90;;
5979;SDS011;3016;50.308;8.258;2023-02-28T03:08:50;24.07;;;6.03;;
5979;SDS011;3016;50.308;8.258;2023-02-28T03:11:51;27.00;;;7.37;;
5979;SDS011;3016;50.308;8.258;2023-02-28T03:18:40;24.67;;;6.53;;
5979;SDS011;3016;50.308;8.258;2023-02-28T03:22:23;23.60;;;6.40;;
5979;SDS011;3016;50.308;8.258;2023-02-28T03:26:19;25.50;;;6.50;;
5979;SDS011;3016;50.308;8.258;2023-02-28T03:32:36;25.00;;;6.43;;
5979;SDS011;3016;50.308;8.258;2023-02-28T03:35:59;26.73;;;7.13;;
5979;SDS011;3016;50.308;8.258;2023-02-28T03:39:28;23.60;;;5.97;;
5979;SDS011;3016;50.308;8.258;2023-02-28T03:42:42;29.23;;;7.07;;
5979;SDS011;3016;50.308;8.258;2023-02-28T03:45:48;26.27;;;7.70;;
5979;SDS011;3016;50.308;8.258;2023-02-28T03:48:53;26.80;;;6.73;;
5979;SDS011;3016;50.308;8.258;2023-02-28T03:52:14;24.80;;;7.60;;
5979;SDS011;3016;50.308;8.258;2023-02-28T03:55:18;30.20;;;7.13;;
5979;SDS011;3016;50.308;8.258;2023-02-28T03:58:29;27.00;;;6.77;;
5979;SDS011;3016;50.308;8.258;2023-02-28T04:01:38;28.10;;;6.93;;
5979;SDS011;3016;50.308;8.258;2023-02-28T04:04:42;24.40;;;6.57;;
5979;SDS011;3016;50.308;8.258;2023-02-28T04:07:44;27.63;;;6.70;;
5979;SDS011;3016;50.308;8.258;2023-02-28T04:10:47;25.13;;;6.60;;
5979;SDS011;3016;50.308;8.258;2023-02-28T04:13:55;26.67;;;7.10;;
5979;SDS011;3016;50.308;8.258;2023-02-28T04:16:56;29.57;;;7.40;;
5979;SDS011;3016;50.308;8.258;2023-02-28T04:19:56;27.07;;;7.13;;
5979;SDS011;3016;50.308;8.258;2023-02-28T04:22:57;26.43;;;7.00;;
5979;SDS011;3016;50.308;8.258;2023-02-28T04:25:58;25.17;;;5.90;;
5979;SDS011;3016;50.308;8.258;2023-02-28T04:28:59;25.77;;;7.33;;
5979;SDS011;3016;50.308;8.258;2023-02-28T04:32:02;27.77;;;7.77;;
5979;SDS011;3016;50.308;8.258;2023-02-28T04:35:04;23.83;;;5.90;;
5979;SDS011;3016;50.308;8.258;2023-02-28T04:38:05;25.77;;;6.93;;
5979;SDS011;3016;50.308;8.258;2023-02-28T04:41:15;26.27;;;6.10;;
5979;SDS011;3016;50.308;8.258;2023-02-28T04:44:17;26.47;;;6.83;;
5979;SDS011;3016;50.308;8.258;2023-02-28T04:47:23;25.70;;;7.60;;
5979;SDS011;3016;50.308;8.258;2023-02-28T04:50:42;23.80;;;6.03;;
5979;SDS011;3016;50.308;8.258;2023-02-28T04:53:43;25.90;;;7.00;;
5979;SDS011;3016;50.308;8.258;2023-02-28T04:56:44;25.03;;;6.33;;
5979;SDS011;3016;50.308;8.258;2023-02-28T04:59:45;25.27;;;6.20;;
5979;SDS011;3016;50.308;8.258;2023-02-28T05:02:45;23.93;;;6.17;;
5979;SDS011;3016;50.308;8.258;2023-02-28T05:05:46;28.17;;;7.73;;
5979;SDS011;3016;50.308;8.258;2023-02-28T05:08:47;26.00;;;7.00;;
5979;SDS011;3016;50.308;8.258;2023-02-28T05:11:48;25.00;;;6.47;;
5979;SDS011;3016;50.308;8.258;2023-02-28T05:14:48;25.80;;;6.47;;
5979;SDS011;3016;50.308;8.258;2023-02-28T05:17:49;24.20;;;6.50;;
5979;SDS011;3016;50.308;8.258;2023-02-28T05:20:50;25.97;;;7.67;;
5979;SDS011;3016;50.308;8.258;2023-02-28T05:23:51;29.33;;;8.53;;
5979;SDS011;3016;50.308;8.258;2023-02-28T05:26:53;25.60;;;6.20;;
5979;SDS011;3016;50.308;8.258;2023-02-28T05:29:55;31.77;;;6.57;;
5979;SDS011;3016;50.308;8.258;2023-02-28T05:32:56;26.50;;;7.40;;
5979;SDS011;3016;50.308;8.258;2023-02-28T05:35:58;25.80;;;6.67;;
5979;SDS011;3016;50.308;8.258;2023-02-28T05:38:59;30.27;;;8.80;;
5979;SDS011;3016;50.308;8.258;2023-02-28T05:42:00;39.00;;;10.70;;
5979;SDS011;3016;50.308;8.258;2023-02-28T05:45:01;33.03;;;10.30;;
5979;SDS011;3016;50.308;8.258;2023-02-28T05:48:03;29.07;;;8.33;;
5979;SDS011;3016;50.308;8.258;2023-02-28T05:51:05;28.40;;;7.90;;
5979;SDS011;3016;50.308;8.258;2023-02-28T05:54:08;29.37;;;8.60;;
5979;SDS011;3016;50.308;8.258;2023-02-28T05:57:09;29.93;;;8.23;;
5979;SDS011;3016;50.308;8.258;2023-02-28T06:00:10;28.67;;;7.53;;
5979;SDS011;3016;50.308;8.258;2023-02-28T06:03:15;30.63;;;7.87;;
5979;SDS011;3016;50.308;8.258;2023-02-28T06:06:18;31.03;;;8.10;;
5979;SDS011;3016;50.308;8.258;2023-02-28T06:09:19;24.43;;;6.67;;
5979;SDS011;3016;50.308;8.258;2023-02-28T06:12:21;26.10;;;7.17;;
5979;SDS011;3016;50.308;8.258;2023-02-28T06:15:22;28.50;;;8.17;;
5979;SDS011;3016;50.308;8.258;2023-02-28T06:18:23;29.17;;;7.50;;
5979;SDS011;3016;50.308;8.258;2023-02-28T06:21:24;25.70;;;6.73;;
5979;SDS011;3016;50.308;8.258;2023-02-28T06:24:27;28.87;;;9.10;;
5979;SDS011;3016;50.308;8.258;2023-02-28T06:27:28;27.30;;;7.33;;
5979;SDS011;3016;50.308;8.258;2023-02-28T06:30:31;28.20;;;8.80;;
5979;SDS011;3016;50.308;8.258;2023-02-28T06:36:57;27.10;;;8.00;;
5979;SDS011;3016;50.308;8.258;2023-02-28T06:40:02;27.47;;;7.47;;
5979;SDS011;3016;50.308;8.258;2023-02-28T06:43:06;28.87;;;9.27;;
5979;SDS011;3016;50.308;8.258;2023-02-28T06:46:08;27.40;;;7.73;;
5979;SDS011;3016;50.308;8.258;2023-02-28T06:49:13;27.07;;;7.90;;
5979;SDS011;3016;50.308;8.258;2023-02-28T06:52:15;27.20;;;8.50;;
5979;SDS011;3016;50.308;8.258;2023-02-28T06:55:16;30.07;;;9.30;;
5979;SDS011;3016;50.308;8.258;2023-02-28T06:58:18;26.57;;;7.50;;
5979;SDS011;3016;50.308;8.258;2023-02-28T07:01:19;28.50;;;8.13;;
5979;SDS011;3016;50.308;8.258;2023-02-28T07:04:22;25.70;;;7.73;;
5979;SDS011;3016;50.308;8.258;2023-02-28T07:07:24;27.60;;;8.07;;
5979;SDS011;3016;50.308;8.258;2023-02-28T07:10:25;25.30;;;7.90;;
5979;SDS011;3016;50.308;8.258;2023-02-28T07:13:27;29.13;;;8.77;;
5979;SDS011;3016;50.308;8.258;2023-02-28T07:16:28;27.67;;;7.40;;
5979;SDS011;3016;50.308;8.258;2023-02-28T07:19:46;29.60;;;7.90;;
5979;SDS011;3016;50.308;8.258;2023-02-28T07:22:47;25.07;;;7.30;;
5979;SDS011;3016;50.308;8.258;2023-02-28T07:25:55;26.83;;;7.93;;
5979;SDS011;3016;50.308;8.258;2023-02-28T07:28:56;25.20;;;7.00;;
5979;SDS011;3016;50.308;8.258;2023-02-28T07:31:58;23.43;;;6.07;;
5979;SDS011;3016;50.308;8.258;2023-02-28T07:34:59;28.50;;;7.03;;
5979;SDS011;3016;50.308;8.258;2023-02-28T07:38:00;29.80;;;6.37;;
5979;SDS011;3016;50.308;8.258;2023-02-28T07:41:03;25.03;;;6.40;;
5979;SDS011;3016;50.308;8.258;2023-02-28T07:44:04;28.53;;;6.87;;
5979;SDS011;3016;50.308;8.258;2023-02-28T07:47:06;25.57;;;6.57;;
5979;SDS011;3016;50.308;8.258;2023-02-28T07:50:09;26.50;;;6.47;;
5979;SDS011;3016;50.308;8.258;2023-02-28T07:53:13;24.50;;;6.07;;
5979;SDS011;3016;50.308;8.258;2023-02-28T07:56:14;26.50;;;6.27;;
5979;SDS011;3016;50.308;8.258;2023-02-28T07:59:15;24.77;;;5.87;;
5979;SDS011;3016;50.308;8.258;2023-02-28T08:02:17;26.70;;;5.67;;
5979;SDS011;3016;50.308;8.258;2023-02-28T08:05:19;24.00;;;5.17;;
5979;SDS011;3016;50.308;8.258;2023-02-28T08:08:21;25.73;;;5.57;;
5979;SDS011;3016;50.308;8.258;2023-02-28T08:11:22;22.90;;;5.53;;
5979;SDS011;3016;50.308;8.258;2023-02-28T08:14:24;23.37;;;4.90;;
5979;SDS011;3016;50.308;8.258;2023-02-28T08:17:30;26.83;;;5.70;;
5979;SDS011;3016;50.308;8.258;2023-02-28T08:20:34;22.50;;;5.00;;
5979;SDS011;3016;50.308;8.258;2023-02-28T08:23:41;24.23;;;5.63;;
5979;SDS011;3016;50.308;8.258;2023-02-28T08:36:14;23.30;;;4.77;;
5979;SDS011;3016;50.308;8.258;2023-02-28T08:48:51;21.80;;;4.17;;
5979;SDS011;3016;50.308;8.258;2023-02-28T08:51:56;24.13;;;4.40;;
5979;SDS011;3016;50.308;8.258;2023-02-28T08:55:36;22.90;;;4.60;;
5979;SDS011;3016;50.308;8.258;2023-02-28T09:01:48;22.30;;;4.73;;
5979;SDS011;3016;50.308;8.258;2023-02-28T09:08:12;23.53;;;4.60;;
5979;SDS011;3016;50.308;8.258;2023-02-28T09:11:17;22.43;;;4.17;;
5979;SDS011;3016;50.308;8.258;2023-02-28T09:17:31;36.63;;;5.30;;
5979;SDS011;3016;50.308;8.258;2023-02-28T09:20:40;23.60;;;5.13;;
5979;SDS011;3016;50.308;8.258;2023-02-28T09:24:02;24.53;;;5.33;;
5979;SDS011;3016;50.308;8.258;2023-02-28T10:22:44;26.50;;;5.70;;
5979;SDS011;3016;50.308;8.258;2023-02-28T10:29:21;22.40;;;4.60;;
5979;SDS011;3016;50.308;8.258;2023-02-28T10:32:32;25.50;;;5.50;;
5979;SDS011;3016;50.308;8.258;2023-02-28T10:38:56;23.00;;;4.87;;
5979;SDS011;3016;50.308;8.258;2023-02-28T10:41:58;26.27;;;5.60;;
5979;SDS011;3016;50.308;8.258;2023-02-28T10:45:09;24.40;;;5.10;;
5979;SDS011;3016;50.308;8.258;2023-02-28T10:51:33;23.30;;;5.40;;
5979;SDS011;3016;50.308;8.258;2023-02-28T10:54:40;24.07;;;5.90;;
5979;SDS011;3016;50.308;8.258;2023-02-28T11:33:46;25.30;;;5.23;;
5979;SDS011;3016;50.308;8.258;2023-02-28T11:36:55;24.93;;;5.57;;
5979;SDS011;3016;50.308;8.258;2023-02-28T11:39:58;25.33;;;6.27;;
5979;SDS011;3016;50.308;8.258;2023-02-28T11:46:43;29.90;;;6.60;;
5979;SDS011;3016;50.308;8.258;2023-02-28T11:50:40;23.57;;;5.70;;
5979;SDS011;3016;50.308;8.258;2023-02-28T11:56:31;24.70;;;5.80;;
5979;SDS011;3016;50.308;8.258;2023-02-28T12:00:29;25.60;;;5.90;;
5979;SDS011;3016;50.308;8.258;2023-02-28T12:07:30;25.43;;;5.73;;
5979;SDS011;3016;50.308;8.258;2023-02-28T12:11:04;25.30;;;6.20;;
5979;SDS011;3016;50.308;8.258;2023-02-28T12:14:46;24.40;;;5.70;;
5979;SDS011;3016;50.308;8.258;2023-02-28T12:22:23;26.07;;;5.63;;
5979;SDS011;3016;50.308;8.258;2023-02-28T12:28:40;23.17;;;5.20;;
5979;SDS011;3016;50.308;8.258;2023-02-28T12:31:51;25.73;;;5.73;;
5979;SDS011;3016;50.308;8.258;2023-02-28T12:34:58;24.03;;;5.23;;
5979;SDS011;3016;50.308;8.258;2023-02-28T12:38:11;25.30;;;6.00;;
5979;SDS011;3016;50.308;8.258;2023-02-28T12:41:23;25.50;;;5.80;;
5979;SDS011;3016;50.308;8.258;2023-02-28T12:44:52;22.73;;;5.43;;
5979;SDS011;3016;50.308;8.258;2023-02-28T12:48:00;24.23;;;5.93;;
5979;SDS011;3016;50.308;8.258;2023-02-28T12:51:05;24.40;;;6.07;;
5979;SDS011;3016;50.308;8.258;2023-02-28T12:58:12;24.10;;;6.03;;
5979;SDS011;3016;50.308;8.258;2023-02-28T13:01:31;24.33;;;5.87;;
5979;SDS011;3016;50.308;8.258;2023-02-28T13:11:49;25.23;;;6.87;;
5979;SDS011;3016;50.308;8.258;2023-02-28T13:15:01;27.10;;;6.57;;
5979;SDS011;3016;50.308;8.258;2023-02-28T13:18:27;24.33;;;6.63;;
5979;SDS011;3016;50.308;8.258;2023-02-28T13:21:43;27.30;;;6.30;;
5979;SDS011;3016;50.308;8.258;2023-02-28T13:27:55;27.33;;;6.50;;
5979;SDS011;3016;50.308;8.258;2023-02-28T13:31:04;25.83;;;6.70;;
5979;SDS011;3016;50.308;8.258;2023-02-28T13:34:12;23.53;;;5.60;;
5979;SDS011;3016;50.308;8.258;2023-02-28T13:40:32;25.00;;;5.80;;
5979;SDS011;3016;50.308;8.258;2023-02-28T13:47:19;24.50;;;5.90;;
5979;SDS011;3016;50.308;8.258;2023-02-28T13:50:29;25.63;;;6.53;;
5979;SDS011;3016;50.308;8.258;2023-02-28T14:08:22;25.30;;;6.90;;
5979;SDS011;3016;50.308;8.258;2023-02-28T14:11:31;28.07;;;5.77;;
5979;SDS011;3016;50.308;8.258;2023-02-28T14:17:36;23.60;;;6.33;;
5979;SDS011;3016;50.308;8.258;2023-02-28T14:20:42;26.30;;;6.60;;
5979;SDS011;3016;50.308;8.258;2023-02-28T14:28:02;24.47;;;6.33;;
5979;SDS011;3016;50.308;8.258;2023-02-28T14:31:38;25.60;;;6.60;;
5979;SDS011;3016;50.308;8.258;2023-02-28T14:34:54;25.87;;;6.00;;
5979;SDS011;3016;50.308;8.258;2023-02-28T14:38:19;25.27;;;6.03;;
5979;SDS011;3016;50.308;8.258;2023-02-28T14:41:35;24.47;;;5.87;;
5979;SDS011;3016;50.308;8.258;2023-02-28T14:44:38;24.50;;;5.60;;
5979;SDS011;3016;50.308;8.258;2023-02-28T14:47:39;25.00;;;6.37;;
5979;SDS011;3016;50.308;8.258;2023-02-28T14:50:47;24.40;;;5.93;;
5979;SDS011;3016;50.308;8.258;2023-02-28T14:53:55;23.93;;;5.50;;
5979;SDS011;3016;50.308;8.258;2023-02-28T14:56:59;26.13;;;5.87;;
5979;SDS011;3016;50.308;8.258;2023-02-28T15:00:06;24.40;;;6.10;;
5979;SDS011;3016;50.308;8.258;2023-02-28T15:03:38;25.70;;;7.97;;
5979;SDS011;3016;50.308;8.258;2023-02-28T15:06:38;24.70;;;6.53;;
5979;SDS011;3016;50.308;8.258;2023-02-28T15:09:41;24.10;;;6.00;;
5979;SDS011;3016;50.308;8.258;2023-02-28T15:12:55;24.40;;;5.80;;
5979;SDS011;3016;50.308;8.258;2023-02-28T15:16:13;24.50;;;5.87;;
5979;SDS011;3016;50.308;8.258;2023-02-28T15:19:23;25.70;;;8.43;;
5979;SDS011;3016;50.308;8.258;2023-02-28T15:22:35;25.60;;;6.63;;
5979;SDS011;3016;50.308;8.258;2023-02-28T15:25:37;27.97;;;6.77;;
5979;SDS011;3016;50.308;8.258;2023-02-28T15:28:40;23.83;;;6.20;;
5979;SDS011;3016;50.308;8.258;2023-02-28T15:31:46;24.50;;;6.60;;
5979;SDS011;3016;50.308;8.258;2023-02-28T15:38:25;25.40;;;6.40;;
5979;SDS011;3016;50.308;8.258;2023-02-28T15:41:28;25.17;;;6.33;;
5979;SDS011;3016;50.308;8.258;2023-02-28T15:44:38;28.20;;;7.60;;
5979;SDS011;3016;50.308;8.258;2023-02-28T15:47:44;26.90;;;5.50;;
5979;SDS011;3016;50.308;8.258;2023-02-28T15:50:48;25.93;;;6.50;;
5979;SDS011;3016;50.308;8.258;2023-02-28T15:54:08;24.47;;;6.50;;
5979;SDS011;3016;50.308;8.258;2023-02-28T15:57:17;25.40;;;6.77;;
5979;SDS011;3016;50.308;8.258;2023-02-28T16:00:23;25.63;;;6.10;;
5979;SDS011;3016;50.308;8.258;2023-02-28T16:03:26;24.50;;;7.07;;
5979;SDS011;3016;50.308;8.258;2023-02-28T16:06:42;26.77;;;6.37;;
5979;SDS011;3016;50.308;8.258;2023-02-28T16:09:48;27.60;;;6.23;;
5979;SDS011;3016;50.308;8.258;2023-02-28T16:12:48;25.07;;;6.30;;
5979;SDS011;3016;50.308;8.258;2023-02-28T16:15:49;25.17;;;6.20;;
5979;SDS011;3016;50.308;8.258;2023-02-28T16:18:51;25.47;;;6.37;;
5979;SDS011;3016;50.308;8.258;2023-02-28T16:21:52;26.73;;;7.03;;
5979;SDS011;3016;50.308;8.258;2023-02-28T16:24:52;25.27;;;7.00;;
5979;SDS011;3016;50.308;8.258;2023-02-28T16:27:53;25.10;;;6.43;;
5979;SDS011;3016;50.308;8.258;2023-02-28T16:30:55;24.83;;;6.50;;
5979;SDS011;3016;50.308;8.258;2023-02-28T16:33:56;31.00;;;8.93;;
5979;SDS011;3016;50.308;8.258;2023-02-28T16:36:57;27.93;;;7.90;;
5979;SDS011;3016;50.308;8.258;2023-02-28T16:39:58;25.90;;;7.20;;
5979;SDS011;3016;50.308;8.258;2023-02-28T16:42:59;25.23;;;7.33;;
5979;SDS011;3016;50.308;8.258;2023-02-28T16:46:01;27.10;;;7.67;;
5979;SDS011;3016;50.308;8.258;2023-02-28T16:49:03;25.80;;;7.00;;
5979;SDS011;3016;50.308;8.258;2023-02-28T16:52:04;27.00;;;6.97;;
5979;SDS011;3016;50.308;8.258;2023-02-28T16:55:05;28.20;;;7.97;;
5979;SDS011;3016;50.308;8.258;2023-02-28T16:58:11;25.10;;;6.30;;
5979;SDS011;3016;50.308;8.258;2023-02-28T17:01:16;32.80;;;7.50;;
5979;SDS011;3016;50.308;8.258;2023-02-28T17:04:21;27.27;;;7.50;;
5979;SDS011;3016;50.308;8.258;2023-02-28T17:07:22;27.70;;;7.50;;
5979;SDS011;3016;50.308;8.258;2023-02-28T17:10:24;27.00;;;6.93;;
5979;SDS011;3016;50.308;8.258;2023-02-28T17:13:27;26.53;;;6.27;;
5979;SDS011;3016;50.308;8.258;2023-02-28T17:16:28;25.10;;;7.00;;
5979;SDS011;3016;50.308;8.258;2023-02-28T17:19:32;42.13;;;17.47;;
5979;SDS011;3016;50.308;8.258;2023-02-28T17:22:35;66.87;;;31.93;;
5979;SDS011;3016;50.308;8.258;2023-02-28T17:25:37;48.37;;;24.53;;
5979;SDS011;3016;50.308;8.258;2023-02-28T17:28:37;50.20;;;22.80;;
5979;SDS011;3016;50.308;8.258;2023-02-28T17:31:39;38.10;;;17.27;;
5979;SDS011;3016;50.308;8.258;2023-02-28T17:34:40;36.70;;;11.97;;
5979;SDS011;3016;50.308;8.258;2023-02-28T17:37:41;37.23;;;12.60;;
5979;SDS011;3016;50.308;8.258;2023-02-28T17:40:42;26.70;;;7.27;;
5979;SDS011;3016;50.308;8.258;2023-02-28T17:43:45;26.83;;;7.80;;
5979;SDS011;3016;50.308;8.258;2023-02-28T17:46:53;29.27;;;7.60;;
5979;SDS011;3016;50.308;8.258;2023-02-28T17:49:55;28.07;;;7.47;;
5979;SDS011;3016;50.308;8.258;2023-02-28T17:52:56;24.70;;;7.23;;
5979;SDS011;3016;50.308;8.258;2023-02-28T17:55:57;36.87;;;10.50;;
5979;SDS011;3016;50.308;8.258;2023-02-28T17:58:58;33.23;;;12.63;;
5979;SDS011;3016;50.308;8.258;2023-02-28T18:02:00;31.20;;;10.53;;
5979;SDS011;3016;50.308;8.258;2023-02-28T18:05:01;30.57;;;10.80;;
5979;SDS011;3016;50.308;8.258;2023-02-28T18:08:06;27.13;;;7.07;;
5979;SDS011;3016;50.308;8.258;2023-02-28T18:11:10;27.00;;;7.53;;
5979;SDS011;3016;50.308;8.258;2023-02-28T18:14:18;26.03;;;7.33;;
5979;SDS011;3016;50.308;8.258;2023-02-28T18:17:23;25.40;;;6.70;;
5979;SDS011;3016;50.308;8.258;2023-02-28T18:20:24;26.20;;;7.73;;
5979;SDS011;3016;50.308;8.258;2023-02-28T18:23:25;24.27;;;5.80;;
5979;SDS011;3016;50.308;8.258;2023-02-28T18:26:26;26.13;;;6.30;;
5979;SDS011;3016;50.308;8.258;2023-02-28T18:29:27;23.67;;;6.50;;
5979;SDS011;3016;50.308;8.258;2023-02-28T18:32:28;23.67;;;6.50;;
5979;SDS011;3016;50.308;8.258;2023-02-28T18:35:29;26.17;;;7.23;;
5979;SDS011;3016;50.308;8.258;2023-02-28T18:38:34;26.23;;;6.67;;
5979;SDS011;3016;50.308;8.258;2023-02-28T18:41:35;26.43;;;6.90;;
5979;SDS011;3016;50.308;8.258;2023-02-28T18:44:37;26.73;;;6.70;;
5979;SDS011;3016;50.308;8.258;2023-02-28T18:47:37;29.47;;;7.87;;
5979;SDS011;3016;50.308;8.258;2023-02-28T18:50:38;28.30;;;8.23;;
5979;SDS011;3016;50.308;8.258;2023-02-28T18:53:39;37.33;;;13.10;;
5979;SDS011;3016;50.308;8.258;2023-02-28T18:56:41;33.73;;;10.83;;
5979;SDS011;3016;50.308;8.258;2023-02-28T18:59:42;28.07;;;8.97;;
5979;SDS011;3016;50.308;8.258;2023-02-28T19:02:43;28.43;;;9.20;;
5979;SDS011;3016;50.308;8.258;2023-02-28T19:05:44;31.90;;;10.20;;
5979;SDS011;3016;50.308;8.258;2023-02-28T19:08:46;28.40;;;9.23;;
5979;SDS011;3016;50.308;8.258;2023-02-28T19:11:48;26.03;;;7.57;;
5979;SDS011;3016;50.308;8.258;2023-02-28T19:14:49;29.47;;;8.40;;
5979;SDS011;3016;50.308;8.258;2023-02-28T19:17:50;30.43;;;8.13;;
5979;SDS011;3016;50.308;8.258;2023-02-28T19:20:51;27.07;;;8.47;;
5979;SDS011;3016;50.308;8.258;2023-02-28T19:23:52;27.80;;;9.10;;
5979;SDS011;3016;50.308;8.258;2023-02-28T19:26:52;28.83;;;9.27;;
5979;SDS011;3016;50.308;8.258;2023-02-28T19:29:53;28.03;;;8.47;;
5979;SDS011;3016;50.308;8.258;2023-02-28T19:32:54;28.60;;;9.00;;
5979;SDS011;3016;50.308;8.258;2023-02-28T19:35:58;31.83;;;8.03;;
5979;SDS011;3016;50.308;8.258;2023-02-28T19:39:00;28.80;;;9.00;;
5979;SDS011;3016;50.308;8.258;2023-02-28T19:42:00;27.60;;;7.37;;
5979;SDS011;3016;50.308;8.258;2023-02-28T19:45:01;25.03;;;7.33;;
5979;SDS011;3016;50.308;8.258;2023-02-28T19:48:04;27.90;;;9.30;;
5979;SDS011;3016;50.308;8.258;2023-02-28T19:51:06;35.07;;;11.13;;
5979;SDS011;3016;50.308;8.258;2023-02-28T19:54:12;29.40;;;8.83;;
5979;SDS011;3016;50.308;8.258;2023-02-28T19:57:13;30.00;;;8.40;;
5979;SDS011;3016;50.308;8.258;2023-02-28T20:00:14;36.13;;;12.13;;
5979;SDS011;3016;50.308;8.258;2023-02-28T20:03:16;28.93;;;9.57;;
5979;SDS011;3016;50.308;8.258;2023-02-28T20:06:19;27.83;;;9.30;;
5979;SDS011;3016;50.308;8.258;2023-02-28T20:09:20;28.57;;;9.03;;
5979;SDS011;3016;50.308;8.258;2023-02-28T20:12:21;26.07;;;7.43;;
5979;SDS011;3016;50.308;8.258;2023-02-28T20:18:33;27.40;;;6.17;;
5979;SDS011;3016;50.308;8.258;2023-02-28T20:21:34;30.80;;;7.50;;
5979;SDS011;3016;50.308;8.258;2023-02-28T20:24:35;27.33;;;7.33;;
5979;SDS011;3016;50.308;8.258;2023-02-28T20:27:37;31.70;;;8.80;;
5979;SDS011;3016;50.308;8.258;2023-02-28T20:30:38;24.00;;;6.73;;
5979;SDS011;3016;50.308;8.258;2023-02-28T20:33:41;27.60;;;7.40;;
5979;SDS011;3016;50.308;8.258;2023-02-28T20:36:43;28.60;;;7.70;;
5979;SDS011;3016;50.308;8.258;2023-02-28T20:39:44;27.50;;;8.50;;
5979;SDS011;3016;50.308;8.258;2023-02-28T20:42:45;27.80;;;8.27;;
5979;SDS011;3016;50.308;8.258;2023-02-28T20:45:50;26.20;;;8.23;;
5979;SDS011;3016;50.308;8.258;2023-02-28T20:48:52;27.20;;;7.57;;
5979;SDS011;3016;50.308;8.258;2023-02-28T20:51:53;28.37;;;9.27;;
5979;SDS011;3016;50.308;8.258;2023-02-28T20:54:54;28.00;;;8.23;;
5979;SDS011;3016;50.308;8.258;2023-02-28T20:57:54;24.00;;;6.97;;
5979;SDS011;3016;50.308;8.258;2023-02-28T21:01:02;26.13;;;8.10;;
5979;SDS011;3016;50.308;8.258;2023-02-28T21:04:26;32.77;;;7.80;;
5979;SDS011;3016;50.308;8.258;2023-02-28T21:07:27;25.97;;;7.47;;
5979;SDS011;3016;50.308;8.258;2023-02-28T21:10:28;25.20;;;7.23;;
5979;SDS011;3016;50.308;8.258;2023-02-28T21:13:29;27.07;;;7.77;;
5979;SDS011;3016;50.308;8.258;2023-02-28T21:16:30;27.43;;;8.50;;
5979;SDS011;3016;50.308;8.258;2023-02-28T21:19:31;30.60;;;8.40;;
5979;SDS011;3016;50.308;8.258;2023-02-28T21:22:32;24.47;;;7.30;;
5979;SDS011;3016;50.308;8.258;2023-02-28T21:25:32;25.50;;;7.70;;
5979;SDS011;3016;50.308;8.258;2023-02-28T21:28:33;25.20;;;7.67;;
5979;SDS011;3016;50.308;8.258;2023-02-28T21:31:35;25.87;;;7.70;;
5979;SDS011;3016;50.308;8.258;2023-02-28T21:34:36;26.30;;;7.37;;
5979;SDS011;3016;50.308;8.258;2023-02-28T21:37:37;29.30;;;8.70;;
5979;SDS011;3016;50.308;8.258;2023-02-28T21:40:38;32.80;;;7.73;;
5979;SDS011;3016;50.308;8.258;2023-02-28T21:43:39;36.07;;;9.13;;
5979;SDS011;3016;50.308;8.258;2023-02-28T21:46:41;28.77;;;8.40;;
5979;SDS011;3016;50.308;8.258;2023-02-28T21:49:42;28.93;;;8.73;;
5979;SDS011;3016;50.308;8.258;2023-02-28T21:52:46;26.50;;;7.60;;
5979;SDS011;3016;50.308;8.258;2023-02-28T21:55:59;31.13;;;8.47;;
5979;SDS011;3016;50.308;8.258;2023-02-28T21:59:04;30.73;;;8.27;;
5979;SDS011;3016;50.308;8.258;2023-02-28T22:02:11;33.97;;;9.40;;
5979;SDS011;3016;50.308;8.258;2023-02-28T22:05:21;29.20;;;9.27;;
5979;SDS011;3016;50.308;8.258;2023-02-28T22:08:25;28.80;;;8.67;;
5979;SDS011;3016;50.308;8.258;2023-02-28T22:11:27;30.33;;;7.93;;
5979;SDS011;3016;50.308;8.258;2023-02-28T22:14:32;29.20;;;9.63;;
5979;SDS011;3016;50.308;8.258;2023-02-28T22:17:41;32.23;;;9.47;;
5979;SDS011;3016;50.308;8.258;2023-02-28T22:20:52;29.70;;;9.40;;
5979;SDS011;3016;50.308;8.258;2023-02-28T22:23:56;31.00;;;9.43;;
5979;SDS011;3016;50.308;8.258;2023-02-28T22:26:57;30.03;;;10.50;;
5979;SDS011;3016;50.308;8.258;2023-02-28T22:29:58;39.37;;;13.60;;
5979;SDS011;3016;50.308;8.258;2023-02-28T22:33:00;34.70;;;11.87;;
5979;SDS011;3016;50.308;8.258;2023-02-28T22:36:05;32.07;;;11.03;;
5979;SDS011;3016;50.308;8.258;2023-02-28T22:39:09;29.80;;;9.30;;